sensor_id;sensor_type;location;lat;lon;timestamp;P1;P2;P0
47081;PMS5003;33066;49.296;14.470;2022-09-21T00:00:35;9;9;
47081;PMS5003;33066;49.296;14.470;2022-09-21T00:03:00;8;8;
47081;PMS5003;33066;49.296;14.470;2022-09-21T00:05:25;19;17;
47081;PMS5003;33066;49.296;14.470;2022-09-21T00:07:50;10;10;
47081;PMS5003;33066;49.296;14.470;2022-09-21T00:10:16;12;12;
47081;PMS5003;33066;49.296;14.470;2022-09-21T00:12:41;13;10;
47081;PMS5003;33066;49.296;14.470;2022-09-21T00:15:08;20;17;
47081;PMS5003;33066;49.296;14.470;2022-09-21T00:17:32;11;11;
47081;PMS5003;33066;49.296;14.470;2022-09-21T00:19:58;12;9;
47081;PMS5003;33066;49.296;14.470;2022-09-21T00:22:23;14;11;
47081;PMS5003;33066;49.296;14.470;2022-09-21T00:24:49;14;12;
47081;PMS5003;33066;49.296;14.470;2022-09-21T00:27:14;18;16;
47081;PMS5003;33066;49.296;14.470;2022-09-21T00:29:39;18;13;
47081;PMS5003;33066;49.296;14.470;2022-09-21T00:32:05;11;9;
47081;PMS5003;33066;49.296;14.470;2022-09-21T00:34:30;11;9;
47081;PMS5003;33066;49.296;14.470;2022-09-21T00:36:55;8;8;
47081;PMS5003;33066;49.296;14.470;2022-09-21T00:39:21;12;12;
47081;PMS5003;33066;49.296;14.470;2022-09-21T00:41:46;22;18;
47081;PMS5003;33066;49.296;14.470;2022-09-21T00:44:23;9;8;
47081;PMS5003;33066;49.296;14.470;2022-09-21T00:46:37;15;11;
47081;PMS5003;33066;49.296;14.470;2022-09-21T00:49:02;15;15;
47081;PMS5003;33066;49.296;14.470;2022-09-21T00:51:27;18;13;
47081;PMS5003;33066;49.296;14.470;2022-09-21T00:53:55;8;8;
47081;PMS5003;33066;49.296;14.470;2022-09-21T00:56:19;29;14;
47081;PMS5003;33066;49.296;14.470;2022-09-21T00:58:45;14;9;
47081;PMS5003;33066;49.296;14.470;2022-09-21T01:01:11;13;11;
47081;PMS5003;33066;49.296;14.470;2022-09-21T01:03:36;14;11;
47081;PMS5003;33066;49.296;14.470;2022-09-21T01:06:01;16;13;
47081;PMS5003;33066;49.296;14.470;2022-09-21T01:08:27;17;16;
47081;PMS5003;33066;49.296;14.470;2022-09-21T01:11:11;12;12;
47081;PMS5003;33066;49.296;14.470;2022-09-21T01:13:19;13;12;
47081;PMS5003;33066;49.296;14.470;2022-09-21T01:15:44;25;22;
47081;PMS5003;33066;49.296;14.470;2022-09-21T01:18:11;22;16;
47081;PMS5003;33066;49.296;14.470;2022-09-21T01:20:39;13;11;
47081;PMS5003;33066;49.296;14.470;2022-09-21T01:23:04;15;15;
47081;PMS5003;33066;49.296;14.470;2022-09-21T01:25:27;13;11;
47081;PMS5003;33066;49.296;14.470;2022-09-21T01:27:53;18;17;
47081;PMS5003;33066;49.296;14.470;2022-09-21T01:30:15;12;11;
47081;PMS5003;33066;49.296;14.470;2022-09-21T01:32:41;11;11;
47081;PMS5003;33066;49.296;14.470;2022-09-21T01:35:07;10;10;
47081;PMS5003;33066;49.296;14.470;2022-09-21T01:37:32;12;10;
47081;PMS5003;33066;49.296;14.470;2022-09-21T01:39:58;10;8;
47081;PMS5003;33066;49.296;14.470;2022-09-21T01:42:22;22;15;
47081;PMS5003;33066;49.296;14.470;2022-09-21T01:44:48;18;18;
47081;PMS5003;33066;49.296;14.470;2022-09-21T01:47:13;15;13;
47081;PMS5003;33066;49.296;14.470;2022-09-21T01:49:38;13;10;
47081;PMS5003;33066;49.296;14.470;2022-09-21T01:52:05;13;8;
47081;PMS5003;33066;49.296;14.470;2022-09-21T01:54:31;19;18;
47081;PMS5003;33066;49.296;14.470;2022-09-21T01:56:57;15;12;
47081;PMS5003;33066;49.296;14.470;2022-09-21T01:59:21;12;12;
47081;PMS5003;33066;49.296;14.470;2022-09-21T02:01:46;13;13;
47081;PMS5003;33066;49.296;14.470;2022-09-21T02:04:11;13;11;
47081;PMS5003;33066;49.296;14.470;2022-09-21T02:06:36;11;10;
47081;PMS5003;33066;49.296;14.470;2022-09-21T02:09:01;12;12;
47081;PMS5003;33066;49.296;14.470;2022-09-21T02:11:26;13;8;
47081;PMS5003;33066;49.296;14.470;2022-09-21T02:13:52;16;12;
47081;PMS5003;33066;49.296;14.470;2022-09-21T02:16:25;28;12;
47081;PMS5003;33066;49.296;14.470;2022-09-21T02:18:46;16;16;
47081;PMS5003;33066;49.296;14.470;2022-09-21T02:21:11;15;12;
47081;PMS5003;33066;49.296;14.470;2022-09-21T02:23:35;11;11;
47081;PMS5003;33066;49.296;14.470;2022-09-21T02:26:01;12;11;
47081;PMS5003;33066;49.296;14.470;2022-09-21T02:28:27;19;14;
47081;PMS5003;33066;49.296;14.470;2022-09-21T02:30:52;17;12;
47081;PMS5003;33066;49.296;14.470;2022-09-21T02:33:15;12;11;
47081;PMS5003;33066;49.296;14.470;2022-09-21T02:35:42;11;11;
47081;PMS5003;33066;49.296;14.470;2022-09-21T02:38:07;13;8;
47081;PMS5003;33066;49.296;14.470;2022-09-21T02:40:32;16;10;
47081;PMS5003;33066;49.296;14.470;2022-09-21T02:42:56;7;7;
47081;PMS5003;33066;49.296;14.470;2022-09-21T02:45:21;12;12;
47081;PMS5003;33066;49.296;14.470;2022-09-21T02:47:48;11;10;
47081;PMS5003;33066;49.296;14.470;2022-09-21T02:50:12;10;8;
47081;PMS5003;33066;49.296;14.470;2022-09-21T02:52:37;14;8;
47081;PMS5003;33066;49.296;14.470;2022-09-21T02:55:02;11;10;
47081;PMS5003;33066;49.296;14.470;2022-09-21T02:57:27;14;10;
47081;PMS5003;33066;49.296;14.470;2022-09-21T02:59:52;11;7;
47081;PMS5003;33066;49.296;14.470;2022-09-21T03:02:18;7;7;
47081;PMS5003;33066;49.296;14.470;2022-09-21T03:04:43;10;9;
47081;PMS5003;33066;49.296;14.470;2022-09-21T03:07:08;9;9;
47081;PMS5003;33066;49.296;14.470;2022-09-21T03:09:33;14;10;
47081;PMS5003;33066;49.296;14.470;2022-09-21T03:12:59;14;9;
47081;PMS5003;33066;49.296;14.470;2022-09-21T03:15:25;14;11;
47081;PMS5003;33066;49.296;14.470;2022-09-21T03:17:51;11;10;
47081;PMS5003;33066;49.296;14.470;2022-09-21T03:20:16;10;8;
47081;PMS5003;33066;49.296;14.470;2022-09-21T03:22:41;15;13;
47081;PMS5003;33066;49.296;14.470;2022-09-21T03:25:07;20;13;
47081;PMS5003;33066;49.296;14.470;2022-09-21T03:27:31;12;11;
47081;PMS5003;33066;49.296;14.470;2022-09-21T03:29:57;14;12;
47081;PMS5003;33066;49.296;14.470;2022-09-21T03:32:22;10;10;
47081;PMS5003;33066;49.296;14.470;2022-09-21T03:34:48;16;13;
47081;PMS5003;33066;49.296;14.470;2022-09-21T03:37:13;20;20;
47081;PMS5003;33066;49.296;14.470;2022-09-21T03:39:39;20;19;
47081;PMS5003;33066;49.296;14.470;2022-09-21T03:42:05;19;18;
47081;PMS5003;33066;49.296;14.470;2022-09-21T03:44:30;9;9;
47081;PMS5003;33066;49.296;14.470;2022-09-21T03:46:55;12;10;
47081;PMS5003;33066;49.296;14.470;2022-09-21T03:49:20;15;9;
47081;PMS5003;33066;49.296;14.470;2022-09-21T03:51:45;11;11;
47081;PMS5003;33066;49.296;14.470;2022-09-21T03:54:11;11;11;
47081;PMS5003;33066;49.296;14.470;2022-09-21T03:56:36;10;7;
47081;PMS5003;33066;49.296;14.470;2022-09-21T03:59:01;13;11;
47081;PMS5003;33066;49.296;14.470;2022-09-21T04:01:26;15;13;
47081;PMS5003;33066;49.296;14.470;2022-09-21T04:03:52;13;12;
47081;PMS5003;33066;49.296;14.470;2022-09-21T04:06:17;10;9;
47081;PMS5003;33066;49.296;14.470;2022-09-21T04:08:43;10;10;
47081;PMS5003;33066;49.296;14.470;2022-09-21T04:11:08;11;6;
47081;PMS5003;33066;49.296;14.470;2022-09-21T04:13:33;6;6;
47081;PMS5003;33066;49.296;14.470;2022-09-21T04:15:59;6;6;
47081;PMS5003;33066;49.296;14.470;2022-09-21T04:18:24;10;8;
47081;PMS5003;33066;49.296;14.470;2022-09-21T04:20:49;6;6;
47081;PMS5003;33066;49.296;14.470;2022-09-21T04:23:15;12;6;
47081;PMS5003;33066;49.296;14.470;2022-09-21T04:25:40;4;4;
47081;PMS5003;33066;49.296;14.470;2022-09-21T04:28:05;10;7;
47081;PMS5003;33066;49.296;14.470;2022-09-21T04:30:30;11;11;
47081;PMS5003;33066;49.296;14.470;2022-09-21T04:32:55;7;6;
47081;PMS5003;33066;49.296;14.470;2022-09-21T04:35:21;5;5;
47081;PMS5003;33066;49.296;14.470;2022-09-21T04:37:46;8;6;
47081;PMS5003;33066;49.296;14.470;2022-09-21T04:40:12;7;6;
47081;PMS5003;33066;49.296;14.470;2022-09-21T04:42:37;10;7;
47081;PMS5003;33066;49.296;14.470;2022-09-21T04:45:02;5;5;
47081;PMS5003;33066;49.296;14.470;2022-09-21T04:47:28;11;7;
47081;PMS5003;33066;49.296;14.470;2022-09-21T04:49:53;7;6;
47081;PMS5003;33066;49.296;14.470;2022-09-21T04:52:19;7;7;
47081;PMS5003;33066;49.296;14.470;2022-09-21T04:54:44;6;6;
47081;PMS5003;33066;49.296;14.470;2022-09-21T04:57:09;7;7;
47081;PMS5003;33066;49.296;14.470;2022-09-21T04:59:35;6;6;
47081;PMS5003;33066;49.296;14.470;2022-09-21T05:02:00;6;6;
47081;PMS5003;33066;49.296;14.470;2022-09-21T05:04:25;6;6;
47081;PMS5003;33066;49.296;14.470;2022-09-21T05:06:51;11;6;
47081;PMS5003;33066;49.296;14.470;2022-09-21T05:09:16;6;5;
47081;PMS5003;33066;49.296;14.470;2022-09-21T05:11:41;7;5;
47081;PMS5003;33066;49.296;14.470;2022-09-21T05:14:07;7;7;
47081;PMS5003;33066;49.296;14.470;2022-09-21T05:16:32;37;33;
47081;PMS5003;33066;49.296;14.470;2022-09-21T05:18:57;27;25;
47081;PMS5003;33066;49.296;14.470;2022-09-21T05:21:23;20;20;
47081;PMS5003;33066;49.296;14.470;2022-09-21T05:23:48;38;26;
47081;PMS5003;33066;49.296;14.470;2022-09-21T05:26:14;40;37;
47081;PMS5003;33066;49.296;14.470;2022-09-21T05:28:39;53;50;
47081;PMS5003;33066;49.296;14.470;2022-09-21T05:31:09;50;50;
47081;PMS5003;33066;49.296;14.470;2022-09-21T05:33:29;79;71;
47081;PMS5003;33066;49.296;14.470;2022-09-21T05:35:58;144;138;
47081;PMS5003;33066;49.296;14.470;2022-09-21T05:38:20;70;68;
47081;PMS5003;33066;49.296;14.470;2022-09-21T05:40:45;81;75;
47081;PMS5003;33066;49.296;14.470;2022-09-21T05:43:11;44;40;
47081;PMS5003;33066;49.296;14.470;2022-09-21T05:45:36;35;32;
47081;PMS5003;33066;49.296;14.470;2022-09-21T05:48:05;73;73;
47081;PMS5003;33066;49.296;14.470;2022-09-21T05:50:33;48;48;
47081;PMS5003;33066;49.296;14.470;2022-09-21T05:52:55;55;54;
47081;PMS5003;33066;49.296;14.470;2022-09-21T05:55:20;42;41;
47081;PMS5003;33066;49.296;14.470;2022-09-21T05:57:45;40;36;
47081;PMS5003;33066;49.296;14.470;2022-09-21T06:00:11;15;13;
47081;PMS5003;33066;49.296;14.470;2022-09-21T06:04:59;14;13;
47081;PMS5003;33066;49.296;14.470;2022-09-21T06:07:25;26;21;
47081;PMS5003;33066;49.296;14.470;2022-09-21T06:09:50;18;17;
47081;PMS5003;33066;49.296;14.470;2022-09-21T06:12:16;43;42;
47081;PMS5003;33066;49.296;14.470;2022-09-21T06:14:42;34;33;
47081;PMS5003;33066;49.296;14.470;2022-09-21T06:17:07;23;18;
47081;PMS5003;33066;49.296;14.470;2022-09-21T06:19:33;17;17;
47081;PMS5003;33066;49.296;14.470;2022-09-21T06:21:59;15;15;
47081;PMS5003;33066;49.296;14.470;2022-09-21T06:24:24;22;17;
47081;PMS5003;33066;49.296;14.470;2022-09-21T06:26:50;18;18;
47081;PMS5003;33066;49.296;14.470;2022-09-21T06:29:15;18;13;
47081;PMS5003;33066;49.296;14.470;2022-09-21T06:31:40;22;13;
47081;PMS5003;33066;49.296;14.470;2022-09-21T06:34:06;11;11;
47081;PMS5003;33066;49.296;14.470;2022-09-21T06:36:32;15;14;
47081;PMS5003;33066;49.296;14.470;2022-09-21T06:38:57;12;12;
47081;PMS5003;33066;49.296;14.470;2022-09-21T06:41:22;16;14;
47081;PMS5003;33066;49.296;14.470;2022-09-21T06:43:47;9;9;
47081;PMS5003;33066;49.296;14.470;2022-09-21T06:46:13;30;27;
47081;PMS5003;33066;49.296;14.470;2022-09-21T06:48:38;35;32;
47081;PMS5003;33066;49.296;14.470;2022-09-21T06:51:04;28;27;
47081;PMS5003;33066;49.296;14.470;2022-09-21T06:53:30;43;41;
47081;PMS5003;33066;49.296;14.470;2022-09-21T06:55:59;31;30;
47081;PMS5003;33066;49.296;14.470;2022-09-21T06:58:20;34;26;
47081;PMS5003;33066;49.296;14.470;2022-09-21T07:00:46;34;31;
47081;PMS5003;33066;49.296;14.470;2022-09-21T07:03:11;26;22;
47081;PMS5003;33066;49.296;14.470;2022-09-21T07:05:36;29;27;
47081;PMS5003;33066;49.296;14.470;2022-09-21T07:08:01;30;30;
47081;PMS5003;33066;49.296;14.470;2022-09-21T07:10:26;20;20;
47081;PMS5003;33066;49.296;14.470;2022-09-21T07:12:52;16;16;
47081;PMS5003;33066;49.296;14.470;2022-09-21T07:15:17;21;20;
47081;PMS5003;33066;49.296;14.470;2022-09-21T07:17:43;30;30;
47081;PMS5003;33066;49.296;14.470;2022-09-21T07:20:08;17;16;
47081;PMS5003;33066;49.296;14.470;2022-09-21T07:22:34;27;24;
47081;PMS5003;33066;49.296;14.470;2022-09-21T07:24:59;20;20;
47081;PMS5003;33066;49.296;14.470;2022-09-21T07:27:24;17;16;
47081;PMS5003;33066;49.296;14.470;2022-09-21T07:29:49;21;20;
47081;PMS5003;33066;49.296;14.470;2022-09-21T07:32:15;14;14;
47081;PMS5003;33066;49.296;14.470;2022-09-21T07:34:41;23;21;
47081;PMS5003;33066;49.296;14.470;2022-09-21T07:37:07;29;29;
47081;PMS5003;33066;49.296;14.470;2022-09-21T07:39:32;35;33;
47081;PMS5003;33066;49.296;14.470;2022-09-21T07:41:57;38;38;
47081;PMS5003;33066;49.296;14.470;2022-09-21T07:44:23;22;19;
47081;PMS5003;33066;49.296;14.470;2022-09-21T07:46:48;38;35;
47081;PMS5003;33066;49.296;14.470;2022-09-21T07:49:14;34;29;
47081;PMS5003;33066;49.296;14.470;2022-09-21T07:51:40;19;16;
47081;PMS5003;33066;49.296;14.470;2022-09-21T07:54:07;27;27;
47081;PMS5003;33066;49.296;14.470;2022-09-21T07:56:31;23;23;
47081;PMS5003;33066;49.296;14.470;2022-09-21T07:58:56;44;39;
47081;PMS5003;33066;49.296;14.470;2022-09-21T08:01:22;11;9;
47081;PMS5003;33066;49.296;14.470;2022-09-21T08:03:47;18;18;
47081;PMS5003;33066;49.296;14.470;2022-09-21T08:06:13;13;11;
47081;PMS5003;33066;49.296;14.470;2022-09-21T08:08:39;36;31;
47081;PMS5003;33066;49.296;14.470;2022-09-21T08:11:05;11;8;
47081;PMS5003;33066;49.296;14.470;2022-09-21T08:13:30;16;12;
47081;PMS5003;33066;49.296;14.470;2022-09-21T08:15:56;9;8;
47081;PMS5003;33066;49.296;14.470;2022-09-21T08:18:20;10;10;
47081;PMS5003;33066;49.296;14.470;2022-09-21T08:23:11;33;32;
47081;PMS5003;33066;49.296;14.470;2022-09-21T08:25:37;10;9;
47081;PMS5003;33066;49.296;14.470;2022-09-21T08:28:03;11;9;
47081;PMS5003;33066;49.296;14.470;2022-09-21T08:30:28;9;9;
47081;PMS5003;33066;49.296;14.470;2022-09-21T08:32:54;17;11;
47081;PMS5003;33066;49.296;14.470;2022-09-21T08:35:19;10;9;
47081;PMS5003;33066;49.296;14.470;2022-09-21T08:37:46;11;9;
47081;PMS5003;33066;49.296;14.470;2022-09-21T08:40:11;7;7;
47081;PMS5003;33066;49.296;14.470;2022-09-21T08:42:38;13;12;
47081;PMS5003;33066;49.296;14.470;2022-09-21T08:45:03;23;19;
47081;PMS5003;33066;49.296;14.470;2022-09-21T08:47:27;8;8;
47081;PMS5003;33066;49.296;14.470;2022-09-21T08:49:53;8;8;
47081;PMS5003;33066;49.296;14.470;2022-09-21T08:52:18;11;9;
47081;PMS5003;33066;49.296;14.470;2022-09-21T08:54:45;12;12;
47081;PMS5003;33066;49.296;14.470;2022-09-21T08:57:10;10;10;
47081;PMS5003;33066;49.296;14.470;2022-09-21T08:59:34;12;12;
47081;PMS5003;33066;49.296;14.470;2022-09-21T09:02:02;9;9;
47081;PMS5003;33066;49.296;14.470;2022-09-21T09:04:33;29;27;
47081;PMS5003;33066;49.296;14.470;2022-09-21T09:06:53;9;9;
47081;PMS5003;33066;49.296;14.470;2022-09-21T09:09:19;14;11;
47081;PMS5003;33066;49.296;14.470;2022-09-21T09:11:44;12;12;
47081;PMS5003;33066;49.296;14.470;2022-09-21T09:14:11;12;9;
47081;PMS5003;33066;49.296;14.470;2022-09-21T09:16:34;8;8;
47081;PMS5003;33066;49.296;14.470;2022-09-21T09:18:59;11;10;
47081;PMS5003;33066;49.296;14.470;2022-09-21T09:21:23;11;11;
47081;PMS5003;33066;49.296;14.470;2022-09-21T09:23:50;10;9;
47081;PMS5003;33066;49.296;14.470;2022-09-21T09:26:14;10;9;
47081;PMS5003;33066;49.296;14.470;2022-09-21T09:28:40;8;6;
47081;PMS5003;33066;49.296;14.470;2022-09-21T09:31:05;10;8;
47081;PMS5003;33066;49.296;14.470;2022-09-21T09:33:34;10;9;
47081;PMS5003;33066;49.296;14.470;2022-09-21T09:35:57;10;7;
47081;PMS5003;33066;49.296;14.470;2022-09-21T09:38:23;12;10;
47081;PMS5003;33066;49.296;14.470;2022-09-21T09:40:52;32;32;
47081;PMS5003;33066;49.296;14.470;2022-09-21T09:43:14;24;23;
47081;PMS5003;33066;49.296;14.470;2022-09-21T09:45:42;23;22;
47081;PMS5003;33066;49.296;14.470;2022-09-21T09:48:07;16;16;
47081;PMS5003;33066;49.296;14.470;2022-09-21T09:50:31;23;23;
47081;PMS5003;33066;49.296;14.470;2022-09-21T09:52:56;20;17;
47081;PMS5003;33066;49.296;14.470;2022-09-21T09:55:21;18;15;
47081;PMS5003;33066;49.296;14.470;2022-09-21T09:57:46;11;11;
47081;PMS5003;33066;49.296;14.470;2022-09-21T10:00:12;18;15;
47081;PMS5003;33066;49.296;14.470;2022-09-21T10:02:44;12;11;
47081;PMS5003;33066;49.296;14.470;2022-09-21T10:05:02;13;12;
47081;PMS5003;33066;49.296;14.470;2022-09-21T10:07:33;6;6;
47081;PMS5003;33066;49.296;14.470;2022-09-21T10:09:52;48;38;
47081;PMS5003;33066;49.296;14.470;2022-09-21T10:12:18;10;10;
47081;PMS5003;33066;49.296;14.470;2022-09-21T10:14:47;9;6;
47081;PMS5003;33066;49.296;14.470;2022-09-21T10:17:11;9;6;
47081;PMS5003;33066;49.296;14.470;2022-09-21T10:19:33;7;7;
47081;PMS5003;33066;49.296;14.470;2022-09-21T10:21:59;9;9;
47081;PMS5003;33066;49.296;14.470;2022-09-21T10:24:24;7;7;
47081;PMS5003;33066;49.296;14.470;2022-09-21T10:26:51;58;46;
47081;PMS5003;33066;49.296;14.470;2022-09-21T10:29:16;15;12;
47081;PMS5003;33066;49.296;14.470;2022-09-21T10:31:41;68;65;
47081;PMS5003;33066;49.296;14.470;2022-09-21T10:34:10;4;4;
47081;PMS5003;33066;49.296;14.470;2022-09-21T10:36:32;6;5;
47081;PMS5003;33066;49.296;14.470;2022-09-21T10:41:21;5;5;
47081;PMS5003;33066;49.296;14.470;2022-09-21T10:43:47;9;9;
47081;PMS5003;33066;49.296;14.470;2022-09-21T10:46:12;6;3;
47081;PMS5003;33066;49.296;14.470;2022-09-21T10:48:37;4;4;
47081;PMS5003;33066;49.296;14.470;2022-09-21T10:51:02;4;4;
47081;PMS5003;33066;49.296;14.470;2022-09-21T10:53:28;4;4;
47081;PMS5003;33066;49.296;14.470;2022-09-21T10:55:55;4;4;
47081;PMS5003;33066;49.296;14.470;2022-09-21T10:58:17;5;5;
47081;PMS5003;33066;49.296;14.470;2022-09-21T11:00:43;7;4;
47081;PMS5003;33066;49.296;14.470;2022-09-21T11:05:33;4;4;
47081;PMS5003;33066;49.296;14.470;2022-09-21T11:07:59;4;4;
47081;PMS5003;33066;49.296;14.470;2022-09-21T11:10:25;9;4;
47081;PMS5003;33066;49.296;14.470;2022-09-21T11:12:52;4;4;
47081;PMS5003;33066;49.296;14.470;2022-09-21T11:15:16;5;5;
47081;PMS5003;33066;49.296;14.470;2022-09-21T11:17:40;4;4;
47081;PMS5003;33066;49.296;14.470;2022-09-21T11:20:08;4;4;
47081;PMS5003;33066;49.296;14.470;2022-09-21T11:22:31;18;18;
47081;PMS5003;33066;49.296;14.470;2022-09-21T11:24:58;7;7;
47081;PMS5003;33066;49.296;14.470;2022-09-21T11:27:21;5;4;
47081;PMS5003;33066;49.296;14.470;2022-09-21T11:29:47;7;6;
47081;PMS5003;33066;49.296;14.470;2022-09-21T11:32:15;7;7;
47081;PMS5003;33066;49.296;14.470;2022-09-21T11:34:41;3;3;
47081;PMS5003;33066;49.296;14.470;2022-09-21T11:37:03;3;3;
47081;PMS5003;33066;49.296;14.470;2022-09-21T11:39:27;2;2;
47081;PMS5003;33066;49.296;14.470;2022-09-21T11:41:54;4;4;
47081;PMS5003;33066;49.296;14.470;2022-09-21T11:44:19;8;8;
47081;PMS5003;33066;49.296;14.470;2022-09-21T11:46:43;2;2;
47081;PMS5003;33066;49.296;14.470;2022-09-21T11:49:14;4;4;
47081;PMS5003;33066;49.296;14.470;2022-09-21T11:51:36;2;2;
47081;PMS5003;33066;49.296;14.470;2022-09-21T11:54:06;3;3;
47081;PMS5003;33066;49.296;14.470;2022-09-21T11:56:26;2;2;
47081;PMS5003;33066;49.296;14.470;2022-09-21T11:58:48;1;1;
47081;PMS5003;33066;49.296;14.470;2022-09-21T12:01:16;2;1;
47081;PMS5003;33066;49.296;14.470;2022-09-21T12:03:42;2;2;
47081;PMS5003;33066;49.296;14.470;2022-09-21T12:06:11;33;28;
47081;PMS5003;33066;49.296;14.470;2022-09-21T12:08:33;14;14;
47081;PMS5003;33066;49.296;14.470;2022-09-21T12:10:54;4;4;
47081;PMS5003;33066;49.296;14.470;2022-09-21T12:13:21;5;5;
47081;PMS5003;33066;49.296;14.470;2022-09-21T12:15:45;5;3;
47081;PMS5003;33066;49.296;14.470;2022-09-21T12:18:09;5;5;
47081;PMS5003;33066;49.296;14.470;2022-09-21T12:20:35;4;4;
47081;PMS5003;33066;49.296;14.470;2022-09-21T12:22:59;4;4;
47081;PMS5003;33066;49.296;14.470;2022-09-21T12:25:25;3;3;
47081;PMS5003;33066;49.296;14.470;2022-09-21T12:27:49;4;3;
47081;PMS5003;33066;49.296;14.470;2022-09-21T12:30:15;2;2;
47081;PMS5003;33066;49.296;14.470;2022-09-21T12:32:42;4;4;
47081;PMS5003;33066;49.296;14.470;2022-09-21T12:35:05;1;1;
47081;PMS5003;33066;49.296;14.470;2022-09-21T12:37:30;2;2;
47081;PMS5003;33066;49.296;14.470;2022-09-21T12:39:55;4;4;
47081;PMS5003;33066;49.296;14.470;2022-09-21T12:42:24;8;8;
47081;PMS5003;33066;49.296;14.470;2022-09-21T12:44:45;2;2;
47081;PMS5003;33066;49.296;14.470;2022-09-21T12:47:10;3;3;
47081;PMS5003;33066;49.296;14.470;2022-09-21T12:49:37;4;4;
47081;PMS5003;33066;49.296;14.470;2022-09-21T12:52:01;4;4;
47081;PMS5003;33066;49.296;14.470;2022-09-21T12:54:27;3;3;
47081;PMS5003;33066;49.296;14.470;2022-09-21T12:56:51;4;4;
47081;PMS5003;33066;49.296;14.470;2022-09-21T12:59:20;3;3;
47081;PMS5003;33066;49.296;14.470;2022-09-21T13:01:41;2;2;
47081;PMS5003;33066;49.296;14.470;2022-09-21T13:04:11;3;3;
47081;PMS5003;33066;49.296;14.470;2022-09-21T13:08:55;2;2;
47081;PMS5003;33066;49.296;14.470;2022-09-21T13:11:20;2;2;
47081;PMS5003;33066;49.296;14.470;2022-09-21T13:13:45;1;1;
47081;PMS5003;33066;49.296;14.470;2022-09-21T13:18:35;1;1;
47081;PMS5003;33066;49.296;14.470;2022-09-21T13:21:00;3;3;
47081;PMS5003;33066;49.296;14.470;2022-09-21T13:23:26;2;2;
47081;PMS5003;33066;49.296;14.470;2022-09-21T13:28:19;4;3;
47081;PMS5003;33066;49.296;14.470;2022-09-21T13:30:41;3;3;
47081;PMS5003;33066;49.296;14.470;2022-09-21T13:42:48;4;3;
47081;PMS5003;33066;49.296;14.470;2022-09-21T13:47:38;3;3;
47081;PMS5003;33066;49.296;14.470;2022-09-21T13:50:09;2;2;
47081;PMS5003;33066;49.296;14.470;2022-09-21T13:52:29;2;2;
47081;PMS5003;33066;49.296;14.470;2022-09-21T13:54:54;6;4;
47081;PMS5003;33066;49.296;14.470;2022-09-21T13:57:19;4;4;
47081;PMS5003;33066;49.296;14.470;2022-09-21T13:59:44;4;4;
47081;PMS5003;33066;49.296;14.470;2022-09-21T14:04:34;5;5;
47081;PMS5003;33066;49.296;14.470;2022-09-21T14:07:01;2;2;
47081;PMS5003;33066;49.296;14.470;2022-09-21T14:09:25;2;2;
47081;PMS5003;33066;49.296;14.470;2022-09-21T14:11:53;3;3;
47081;PMS5003;33066;49.296;14.470;2022-09-21T14:14:16;3;3;
47081;PMS5003;33066;49.296;14.470;2022-09-21T14:16:50;2;2;
47081;PMS5003;33066;49.296;14.470;2022-09-21T14:19:56;3;3;
47081;PMS5003;33066;49.296;14.470;2022-09-21T14:21:29;2;2;
47081;PMS5003;33066;49.296;14.470;2022-09-21T14:26:20;2;2;
47081;PMS5003;33066;49.296;14.470;2022-09-21T14:28:45;3;3;
47081;PMS5003;33066;49.296;14.470;2022-09-21T14:31:13;2;2;
47081;PMS5003;33066;49.296;14.470;2022-09-21T14:33:39;4;4;
47081;PMS5003;33066;49.296;14.470;2022-09-21T14:36:00;3;2;
47081;PMS5003;33066;49.296;14.470;2022-09-21T14:38:26;3;3;
47081;PMS5003;33066;49.296;14.470;2022-09-21T14:40:50;3;3;
47081;PMS5003;33066;49.296;14.470;2022-09-21T14:43:17;1;1;
47081;PMS5003;33066;49.296;14.470;2022-09-21T14:45:45;3;3;
47081;PMS5003;33066;49.296;14.470;2022-09-21T14:48:06;7;5;
47081;PMS5003;33066;49.296;14.470;2022-09-21T14:50:32;4;4;
47081;PMS5003;33066;49.296;14.470;2022-09-21T14:53:02;4;3;
47081;PMS5003;33066;49.296;14.470;2022-09-21T14:55:24;2;2;
47081;PMS5003;33066;49.296;14.470;2022-09-21T14:57:55;3;3;
47081;PMS5003;33066;49.296;14.470;2022-09-21T15:00:16;5;5;
47081;PMS5003;33066;49.296;14.470;2022-09-21T15:02:40;22;22;
47081;PMS5003;33066;49.296;14.470;2022-09-21T15:05:11;8;8;
47081;PMS5003;33066;49.296;14.470;2022-09-21T15:07:35;3;3;
47081;PMS5003;33066;49.296;14.470;2022-09-21T15:10:02;6;6;
47081;PMS5003;33066;49.296;14.470;2022-09-21T15:12:30;7;7;
47081;PMS5003;33066;49.296;14.470;2022-09-21T15:14:50;3;3;
47081;PMS5003;33066;49.296;14.470;2022-09-21T15:17:22;2;2;
47081;PMS5003;33066;49.296;14.470;2022-09-21T15:19:39;4;2;
47081;PMS5003;33066;49.296;14.470;2022-09-21T15:22:13;4;4;
47081;PMS5003;33066;49.296;14.470;2022-09-21T15:24:30;2;2;
47081;PMS5003;33066;49.296;14.470;2022-09-21T15:26:59;3;3;
47081;PMS5003;33066;49.296;14.470;2022-09-21T15:29:20;2;2;
47081;PMS5003;33066;49.296;14.470;2022-09-21T15:31:44;2;2;
47081;PMS5003;33066;49.296;14.470;2022-09-21T15:34:11;4;4;
47081;PMS5003;33066;49.296;14.470;2022-09-21T15:36:36;4;4;
47081;PMS5003;33066;49.296;14.470;2022-09-21T15:38:59;6;6;
47081;PMS5003;33066;49.296;14.470;2022-09-21T15:43:50;6;6;
47081;PMS5003;33066;49.296;14.470;2022-09-21T15:46:15;6;6;
47081;PMS5003;33066;49.296;14.470;2022-09-21T15:48:40;7;7;
47081;PMS5003;33066;49.296;14.470;2022-09-21T15:51:08;5;5;
47081;PMS5003;33066;49.296;14.470;2022-09-21T15:53:34;9;8;
47081;PMS5003;33066;49.296;14.470;2022-09-21T15:55:58;9;9;
47081;PMS5003;33066;49.296;14.470;2022-09-21T15:58:26;13;7;
47081;PMS5003;33066;49.296;14.470;2022-09-21T16:00:49;10;10;
47081;PMS5003;33066;49.296;14.470;2022-09-21T16:03:16;14;13;
47081;PMS5003;33066;49.296;14.470;2022-09-21T16:05:41;10;10;
47081;PMS5003;33066;49.296;14.470;2022-09-21T16:08:05;10;9;
47081;PMS5003;33066;49.296;14.470;2022-09-21T16:10:35;34;31;
47081;PMS5003;33066;49.296;14.470;2022-09-21T16:12:59;14;11;
47081;PMS5003;33066;49.296;14.470;2022-09-21T16:15:22;18;15;
47081;PMS5003;33066;49.296;14.470;2022-09-21T16:20:15;12;12;
47081;PMS5003;33066;49.296;14.470;2022-09-21T16:22:38;21;20;
47081;PMS5003;33066;49.296;14.470;2022-09-21T16:25:12;27;27;
47081;PMS5003;33066;49.296;14.470;2022-09-21T16:27:29;19;19;
47081;PMS5003;33066;49.296;14.470;2022-09-21T16:29:54;17;15;
47081;PMS5003;33066;49.296;14.470;2022-09-21T16:32:20;13;12;
47081;PMS5003;33066;49.296;14.470;2022-09-21T16:34:45;12;10;
47081;PMS5003;33066;49.296;14.470;2022-09-21T16:39:36;21;14;
47081;PMS5003;33066;49.296;14.470;2022-09-21T16:42:02;17;15;
47081;PMS5003;33066;49.296;14.470;2022-09-21T16:44:27;13;10;